createdAt,value
2018-06-03T00:01:13.764Z,13.10
2018-06-03T00:03:42.299Z,16.70
2018-06-03T00:06:10.152Z,13.43
2018-06-03T00:08:38.267Z,13.63
2018-06-03T00:11:06.476Z,13.37
2018-06-03T00:13:34.572Z,12.70
2018-06-03T00:16:02.724Z,15.77
2018-06-03T00:18:30.831Z,13.07
2018-06-03T00:21:10.443Z,14.57
2018-06-03T00:23:38.478Z,12.57
2018-06-03T00:26:06.604Z,13.27
2018-06-03T00:28:34.716Z,13.13
2018-06-03T00:31:02.778Z,13.80
2018-06-03T00:33:30.902Z,13.50
2018-06-03T00:36:10.612Z,13.77
2018-06-03T00:38:38.672Z,13.30
2018-06-03T00:41:06.805Z,12.33
2018-06-03T00:43:34.881Z,12.00
2018-06-03T00:46:03.144Z,15.83
2018-06-03T00:48:31.309Z,14.63
2018-06-03T00:50:59.413Z,12.00
2018-06-03T00:53:27.622Z,14.20
2018-06-03T00:55:55.709Z,15.13
2018-06-03T00:58:23.813Z,13.93
2018-06-03T01:00:51.893Z,14.73
2018-06-03T01:03:19.981Z,14.27
2018-06-03T01:05:48.164Z,14.77
2018-06-03T01:08:16.250Z,14.80
2018-06-03T01:10:44.333Z,14.83
2018-06-03T01:13:12.408Z,14.43
2018-06-03T01:15:40.506Z,14.23
2018-06-03T01:18:08.569Z,16.70
2018-06-03T01:20:36.637Z,14.90
2018-06-03T01:23:04.730Z,14.50
2018-06-03T01:25:32.847Z,15.67
2018-06-03T01:28:00.988Z,14.97
2018-06-03T01:30:29.129Z,17.07
2018-06-03T01:32:57.033Z,14.57
2018-06-03T01:35:25.141Z,14.27
2018-06-03T01:37:53.221Z,15.93
2018-06-03T01:40:21.326Z,15.90
2018-06-03T01:42:49.412Z,14.73
2018-06-03T01:45:17.494Z,14.70
2018-06-03T01:47:45.640Z,15.17
2018-06-03T01:50:13.717Z,13.97
2018-06-03T01:52:41.824Z,16.30
2018-06-03T01:55:09.911Z,15.10
2018-06-03T01:57:37.994Z,16.83
2018-06-03T02:00:06.063Z,15.13
2018-06-03T02:02:34.185Z,14.33
2018-06-03T02:05:02.296Z,15.77
2018-06-03T02:07:30.433Z,16.00
2018-06-03T02:09:58.569Z,15.70
2018-06-03T02:12:26.694Z,16.47
2018-06-03T02:14:54.805Z,15.87
2018-06-03T02:17:22.897Z,15.47
2018-06-03T02:19:50.965Z,13.90
2018-06-03T02:22:19.041Z,15.10
2018-06-03T02:24:47.116Z,14.87
2018-06-03T02:27:15.212Z,16.63
2018-06-03T02:29:43.277Z,15.30
2018-06-03T02:32:11.369Z,15.87
2018-06-03T02:34:39.449Z,18.03
2018-06-03T02:37:07.609Z,16.43
2018-06-03T02:39:35.702Z,15.27
2018-06-03T02:42:03.798Z,17.83
2018-06-03T02:44:31.916Z,16.03
2018-06-03T02:47:00.004Z,13.67
2018-06-03T02:49:28.200Z,13.13
2018-06-03T02:51:57.397Z,16.37
2018-06-03T02:54:25.511Z,18.10
2018-06-03T02:56:53.578Z,16.43
2018-06-03T02:59:21.638Z,15.77
2018-06-03T03:01:49.732Z,18.03
2018-06-03T03:04:17.796Z,15.70
2018-06-03T03:06:45.884Z,14.50
2018-06-03T03:09:13.973Z,15.83
2018-06-03T03:11:42.053Z,16.87
2018-06-03T03:14:10.146Z,15.40
2018-06-03T03:16:38.231Z,17.90
2018-06-03T03:19:06.314Z,15.57
2018-06-03T03:21:34.489Z,15.60
2018-06-03T03:24:02.634Z,15.43
2018-06-03T03:26:30.775Z,16.10
2018-06-03T03:28:58.910Z,16.77
2018-06-03T03:31:27.048Z,18.53
2018-06-03T03:33:55.117Z,15.93
2018-06-03T03:36:23.190Z,16.80
2018-06-03T03:38:51.291Z,16.70
2018-06-03T03:41:19.377Z,18.50
2018-06-03T03:43:47.471Z,17.53
2018-06-03T03:46:15.545Z,18.83
2018-06-03T03:48:43.645Z,18.67
2018-06-03T03:51:11.746Z,17.97
2018-06-03T03:53:39.945Z,17.50
2018-06-03T03:56:08.050Z,14.90
2018-06-03T03:58:36.148Z,16.17
2018-06-03T04:01:04.241Z,15.97
2018-06-03T04:03:32.434Z,18.33
2018-06-03T04:06:00.577Z,19.33
2018-06-03T04:08:28.685Z,17.43
2018-06-03T04:10:56.805Z,17.77
2018-06-03T04:13:24.876Z,18.20
2018-06-03T04:15:52.804Z,17.87
2018-06-03T04:18:20.882Z,19.03
2018-06-03T04:20:48.992Z,17.90
2018-06-03T04:23:17.061Z,16.93
2018-06-03T04:25:45.209Z,17.50
2018-06-03T04:28:13.300Z,18.97
2018-06-03T04:30:41.444Z,19.27
2018-06-03T04:33:09.617Z,19.50
2018-06-03T04:35:37.697Z,20.93
2018-06-03T04:38:05.796Z,17.53
2018-06-03T04:40:34.015Z,19.70
2018-06-03T04:43:02.118Z,22.63
2018-06-03T04:45:30.228Z,18.47
2018-06-03T04:47:58.385Z,20.67
2018-06-03T04:50:26.547Z,21.20
2018-06-03T04:52:54.601Z,18.97
2018-06-03T04:55:22.786Z,18.67
2018-06-03T04:57:50.889Z,17.60
2018-06-03T05:00:18.771Z,18.07
2018-06-03T05:02:46.845Z,17.90
2018-06-03T05:05:14.987Z,16.73
2018-06-03T05:07:43.064Z,18.87
2018-06-03T05:10:11.208Z,20.20
2018-06-03T05:12:39.292Z,19.07
2018-06-03T05:15:07.373Z,19.07
2018-06-03T05:17:35.492Z,17.57
2018-06-03T05:20:03.607Z,17.13
2018-06-03T05:22:31.780Z,19.07
2018-06-03T05:24:59.960Z,18.37
2018-06-03T05:27:28.120Z,17.10
2018-06-03T05:29:56.266Z,16.33
2018-06-03T05:32:24.341Z,17.77
2018-06-03T05:34:52.412Z,15.67
2018-06-03T05:37:20.482Z,19.67
2018-06-03T05:39:48.553Z,16.13
2018-06-03T05:42:16.697Z,17.53
2018-06-03T05:44:44.780Z,17.13
2018-06-03T05:47:12.893Z,16.97
2018-06-03T05:49:40.816Z,16.17
2018-06-03T05:52:08.916Z,15.33
2018-06-03T05:54:37.002Z,16.57
2018-06-03T05:57:05.155Z,16.43
2018-06-03T05:59:33.249Z,15.43
2018-06-03T06:02:01.345Z,16.33
2018-06-03T06:04:29.482Z,14.87
2018-06-03T06:06:57.424Z,15.53
2018-06-03T06:09:25.510Z,16.67
2018-06-03T06:11:53.621Z,17.03
2018-06-03T06:14:21.715Z,18.00
2018-06-03T06:16:49.809Z,15.57
2018-06-03T06:19:17.902Z,17.77
2018-06-03T06:21:46.004Z,18.43
2018-06-03T06:24:14.093Z,17.13
2018-06-03T06:26:42.169Z,17.57
2018-06-03T06:29:10.289Z,16.13
2018-06-03T06:31:38.535Z,15.00
2018-06-03T06:34:06.473Z,16.03
2018-06-03T06:36:34.537Z,17.10
2018-06-03T06:39:02.706Z,13.43
2018-06-03T06:41:30.817Z,15.37
2018-06-03T06:43:59.030Z,17.03
2018-06-03T06:46:27.181Z,17.07
2018-06-03T06:48:55.276Z,16.83
2018-06-03T06:51:23.340Z,17.10
2018-06-03T06:53:51.468Z,16.40
2018-06-03T06:56:19.594Z,16.97
2018-06-03T06:58:47.773Z,14.47
2018-06-03T07:01:15.974Z,12.97
2018-06-03T07:03:44.093Z,14.23
2018-06-03T07:06:12.169Z,14.33
2018-06-03T07:08:40.241Z,16.20
2018-06-03T07:11:08.310Z,14.17
2018-06-03T07:13:36.384Z,16.13
2018-06-03T07:16:04.488Z,14.10
2018-06-03T07:18:32.772Z,13.77
2018-06-03T07:21:00.897Z,15.57
2018-06-03T07:23:29.008Z,15.60
2018-06-03T07:25:57.124Z,14.20
2018-06-03T07:28:25.205Z,14.77
2018-06-03T07:30:53.354Z,13.87
2018-06-03T07:33:21.244Z,13.77
2018-06-03T07:35:49.320Z,14.20
2018-06-03T07:38:17.222Z,12.47
2018-06-03T07:40:45.524Z,14.97
2018-06-03T07:43:13.613Z,12.67
2018-06-03T07:45:41.697Z,14.23
2018-06-03T07:48:09.809Z,14.53
2018-06-03T07:50:37.957Z,14.07
2018-06-03T07:53:06.734Z,12.27
2018-06-03T07:55:34.916Z,11.13
2018-06-03T07:58:03.046Z,13.97
2018-06-03T08:00:31.232Z,12.40
2018-06-03T08:02:59.511Z,12.23
2018-06-03T08:05:28.033Z,14.27
2018-06-03T08:07:56.112Z,13.20
2018-06-03T08:10:24.186Z,13.70
2018-06-03T08:12:52.328Z,12.40
2018-06-03T08:15:20.384Z,14.03
2018-06-03T08:17:48.469Z,12.03
2018-06-03T08:20:16.544Z,13.13
2018-06-03T08:22:44.619Z,13.57
2018-06-03T08:25:12.735Z,14.73
2018-06-03T08:27:40.816Z,12.53
2018-06-03T08:30:08.949Z,13.80
2018-06-03T08:32:37.035Z,12.73
2018-06-03T08:35:05.320Z,14.77
2018-06-03T08:37:33.477Z,13.70
2018-06-03T08:40:01.344Z,12.40
2018-06-03T08:42:29.494Z,12.60
2018-06-03T08:44:59.312Z,13.60
2018-06-03T08:47:27.501Z,12.10
2018-06-03T08:49:55.655Z,14.07
2018-06-03T08:52:23.801Z,13.23
2018-06-03T08:54:51.950Z,11.00
2018-06-03T08:57:20.073Z,13.20
2018-06-03T08:59:48.132Z,14.37
2018-06-03T09:02:16.237Z,10.83
2018-06-03T09:04:44.337Z,14.60
2018-06-03T09:07:12.435Z,18.37
2018-06-03T09:09:40.653Z,14.90
2018-06-03T09:12:08.712Z,19.57
2018-06-03T09:14:36.810Z,20.87
2018-06-03T09:17:05.065Z,12.13
2018-06-03T09:19:33.278Z,10.83
2018-06-03T09:22:01.419Z,12.07
2018-06-03T09:24:29.669Z,16.97
2018-06-03T09:26:57.547Z,16.10
2018-06-03T09:29:25.772Z,15.53
2018-06-03T09:31:53.877Z,16.43
2018-06-03T09:34:21.964Z,26.90
2018-06-03T09:36:50.065Z,17.77
2018-06-03T09:39:18.245Z,15.67
2018-06-03T09:41:46.386Z,21.17
2018-06-03T09:44:14.470Z,20.60
2018-06-03T09:46:42.590Z,22.53
2018-06-03T09:49:10.679Z,20.27
2018-06-03T09:51:38.750Z,18.43
2018-06-03T09:54:06.865Z,24.53
2018-06-03T09:56:35.034Z,21.43
2018-06-03T09:59:03.293Z,30.57
2018-06-03T10:01:31.442Z,18.27
2018-06-03T10:03:59.745Z,19.60
2018-06-03T10:06:27.922Z,16.67
2018-06-03T10:08:56.082Z,16.97
2018-06-03T10:11:24.160Z,16.53
2018-06-03T10:13:52.281Z,19.03
2018-06-03T10:16:20.374Z,26.30
2018-06-03T10:18:48.442Z,21.87
2018-06-03T10:21:16.516Z,26.57
2018-06-03T10:23:44.605Z,21.07
2018-06-03T10:26:12.725Z,18.23
2018-06-03T10:28:40.809Z,17.70
2018-06-03T10:31:08.928Z,19.10
2018-06-03T10:33:37.028Z,34.77
2018-06-03T10:36:05.169Z,23.13
2018-06-03T10:38:33.476Z,22.73
2018-06-03T10:41:01.675Z,20.07
2018-06-03T10:43:29.877Z,26.53
2018-06-03T10:45:58.640Z,42.20
2018-06-03T10:48:26.760Z,39.13
2018-06-03T10:50:54.857Z,28.80
2018-06-03T10:53:22.984Z,31.47
2018-06-03T10:55:51.146Z,23.90
2018-06-03T10:58:19.291Z,31.00
2018-06-03T11:00:47.373Z,25.20
2018-06-03T11:03:15.607Z,53.60
2018-06-03T11:05:43.666Z,23.20
2018-06-03T11:08:11.773Z,28.57
2018-06-03T11:10:39.872Z,19.00
2018-06-03T11:13:08.001Z,14.53
2018-06-03T11:15:36.145Z,16.07
2018-06-03T11:18:04.304Z,20.13
2018-06-03T11:20:32.436Z,13.43
2018-06-03T11:23:00.655Z,14.93
2018-06-03T11:25:28.925Z,19.77
2018-06-03T11:27:57.099Z,14.43
2018-06-03T11:30:25.181Z,22.47
2018-06-03T11:32:53.241Z,21.17
2018-06-03T11:35:21.408Z,24.50
2018-06-03T11:37:49.547Z,15.97
2018-06-03T11:40:17.638Z,37.37
2018-06-03T11:42:45.758Z,25.27
2018-06-03T11:45:13.613Z,24.07
2018-06-03T11:47:41.706Z,19.03
2018-06-03T11:50:09.760Z,18.03
2018-06-03T11:52:37.846Z,13.63
2018-06-03T11:55:05.935Z,20.00
2018-06-03T11:57:50.286Z,22.80
2018-06-03T12:00:18.404Z,17.33
2018-06-03T12:02:46.553Z,20.10
2018-06-03T12:05:14.612Z,15.33
2018-06-03T12:07:42.741Z,19.87
2018-06-03T12:10:10.837Z,21.70
2018-06-03T12:12:39.036Z,13.83
2018-06-03T12:15:07.213Z,23.50
2018-06-03T12:17:35.362Z,18.77
2018-06-03T12:20:03.602Z,14.23
2018-06-03T12:22:31.552Z,20.77
2018-06-03T12:24:59.800Z,17.83
2018-06-03T12:27:28.025Z,15.57
2018-06-03T12:29:56.136Z,23.00
2018-06-03T12:32:24.236Z,21.77
2018-06-03T12:34:52.167Z,25.97
2018-06-03T12:37:20.232Z,26.67
2018-06-03T12:39:48.482Z,23.63
2018-06-03T12:42:16.599Z,25.27
2018-06-03T12:44:44.666Z,20.90
2018-06-03T12:47:12.801Z,21.77
2018-06-03T12:49:40.876Z,24.10
2018-06-03T12:52:09.033Z,25.87
2018-06-03T12:54:37.086Z,19.50
2018-06-03T12:57:05.684Z,32.60
2018-06-03T12:59:33.849Z,17.50
2018-06-03T13:02:01.967Z,29.17
2018-06-03T13:04:30.097Z,20.33
2018-06-03T13:06:58.281Z,27.33
2018-06-03T13:09:27.073Z,23.43
2018-06-03T13:11:55.177Z,27.20
2018-06-03T13:14:23.329Z,21.40
2018-06-03T13:16:51.537Z,23.00
2018-06-03T13:19:19.709Z,19.73
2018-06-03T13:21:47.799Z,21.90
2018-06-03T13:24:15.957Z,25.47
2018-06-03T13:26:44.069Z,19.50
2018-06-03T13:29:12.205Z,19.33
2018-06-03T13:31:40.297Z,67.63
2018-06-03T13:34:08.189Z,18.77
2018-06-03T13:36:36.396Z,20.77
2018-06-03T13:39:06.921Z,18.50
2018-06-03T13:41:35.024Z,18.67
2018-06-03T13:44:03.300Z,21.73
2018-06-03T13:46:31.556Z,21.17
2018-06-03T13:49:00.213Z,40.00
2018-06-03T13:51:28.420Z,27.57
2018-06-03T13:53:56.573Z,26.60
2018-06-03T13:56:24.757Z,30.40
2018-06-03T13:58:52.945Z,27.10
2018-06-03T14:01:21.044Z,25.83
2018-06-03T14:03:49.105Z,17.17
2018-06-03T14:06:17.241Z,20.53
2018-06-03T14:08:45.342Z,26.33
2018-06-03T14:11:13.421Z,21.33
2018-06-03T14:13:41.509Z,16.50
2018-06-03T14:16:09.592Z,20.67
2018-06-03T14:18:37.784Z,22.20
2018-06-03T14:21:06.128Z,21.70
2018-06-03T14:23:34.251Z,18.67
2018-06-03T14:26:02.374Z,23.17
2018-06-03T14:28:30.549Z,15.93
2018-06-03T14:30:58.475Z,27.63
2018-06-03T14:33:26.648Z,22.53
2018-06-03T14:35:54.713Z,17.07
2018-06-03T14:38:22.815Z,23.77
2018-06-03T14:40:50.907Z,22.83
2018-06-03T14:43:18.998Z,26.27
2018-06-03T14:45:47.168Z,23.03
2018-06-03T14:48:15.453Z,22.50
2018-06-03T14:50:43.547Z,24.23
2018-06-03T14:53:11.705Z,19.87
2018-06-03T14:55:39.830Z,18.63
2018-06-03T14:58:07.912Z,19.73
2018-06-03T15:00:36.093Z,15.37
2018-06-03T15:03:06.027Z,16.93
2018-06-03T15:05:34.158Z,18.80
2018-06-03T15:08:02.695Z,24.23
2018-06-03T15:10:30.823Z,18.67
2018-06-03T15:12:59.185Z,25.27
2018-06-03T15:15:27.105Z,14.43
2018-06-03T15:17:55.209Z,18.00
2018-06-03T15:20:23.406Z,16.60
2018-06-03T15:22:51.489Z,14.70
2018-06-03T15:25:19.575Z,15.00
2018-06-03T15:27:47.660Z,24.47
2018-06-03T15:30:15.780Z,16.70
2018-06-03T15:32:43.911Z,17.83
2018-06-03T15:35:12.022Z,22.30
2018-06-03T15:37:40.158Z,17.37
2018-06-03T15:40:08.240Z,19.33
2018-06-03T15:42:36.345Z,17.40
2018-06-03T15:45:04.514Z,17.67
2018-06-03T15:47:32.724Z,20.63
2018-06-03T15:50:00.951Z,19.83
2018-06-03T15:52:29.221Z,18.67
2018-06-03T15:54:57.499Z,20.63
2018-06-03T15:57:25.639Z,18.73
2018-06-03T15:59:53.763Z,17.20
2018-06-03T16:02:21.850Z,24.93
2018-06-03T16:04:49.985Z,19.10
2018-06-03T16:07:18.077Z,32.20
2018-06-03T16:09:46.355Z,76.83
2018-06-03T16:12:14.429Z,97.40
2018-06-03T16:14:42.537Z,61.60
2018-06-03T16:17:10.668Z,77.67
2018-06-03T16:19:38.837Z,72.47
2018-06-03T16:22:06.938Z,75.10
2018-06-03T16:24:35.122Z,58.93
2018-06-03T16:27:03.276Z,50.63
2018-06-03T16:29:31.609Z,49.23
2018-06-03T16:31:59.752Z,36.07
2018-06-03T16:34:27.953Z,43.53
2018-06-03T16:36:56.075Z,41.43
2018-06-03T16:39:24.312Z,34.30
2018-06-03T16:41:52.396Z,33.97
2018-06-03T16:44:20.460Z,40.20
2018-06-03T16:46:48.530Z,32.57
2018-06-03T16:49:16.745Z,31.93
2018-06-03T16:51:44.808Z,32.47
2018-06-03T16:54:12.869Z,26.10
2018-06-03T16:56:40.728Z,27.87
2018-06-03T16:59:08.813Z,32.07
2018-06-03T17:01:36.877Z,25.73
2018-06-03T17:04:05.233Z,27.83
2018-06-03T17:06:33.345Z,15.67
2018-06-03T17:09:01.465Z,25.63
2018-06-03T17:11:29.653Z,18.73
2018-06-03T17:13:57.872Z,14.47
2018-06-03T17:16:25.970Z,21.30
2018-06-03T17:18:54.035Z,18.47
2018-06-03T17:21:22.140Z,18.67
2018-06-03T17:23:50.214Z,18.23
2018-06-03T17:26:18.372Z,19.50
2018-06-03T17:28:46.440Z,17.80
2018-06-03T17:31:14.498Z,14.37
2018-06-03T17:33:42.641Z,16.33
2018-06-03T17:36:10.669Z,14.43
2018-06-03T17:38:38.744Z,12.57
2018-06-03T17:41:06.828Z,11.80
2018-06-03T17:43:35.024Z,13.63
2018-06-03T17:46:03.129Z,12.50
2018-06-03T17:48:31.268Z,14.90
2018-06-03T17:50:59.422Z,12.70
2018-06-03T17:53:27.547Z,11.23
2018-06-03T17:55:55.637Z,7.53
2018-06-03T17:58:23.767Z,13.20
2018-06-03T18:00:51.628Z,10.27
2018-06-03T18:03:19.674Z,11.73
2018-06-03T18:05:47.861Z,9.57
2018-06-03T18:08:15.926Z,7.03
2018-06-03T18:10:43.978Z,7.93
2018-06-03T18:13:12.111Z,10.00
2018-06-03T18:15:40.178Z,11.40
2018-06-03T18:18:09.439Z,8.70
2018-06-03T18:20:37.565Z,11.30
2018-06-03T18:23:05.693Z,7.77
2018-06-03T18:25:33.808Z,9.33
2018-06-03T18:28:01.935Z,9.87
2018-06-03T18:30:30.334Z,8.77
2018-06-03T18:32:58.767Z,9.03
2018-06-03T18:35:27.193Z,7.43
2018-06-03T18:37:55.054Z,7.50
2018-06-03T18:40:23.126Z,7.83
2018-06-03T18:42:51.241Z,8.40
2018-06-03T18:47:55.089Z,6.43
2018-06-03T18:50:23.145Z,7.03
2018-06-03T18:52:51.217Z,6.50
2018-06-03T18:55:19.301Z,7.03
2018-06-03T18:57:47.239Z,6.23
2018-06-03T19:00:15.368Z,8.03
2018-06-03T19:02:43.453Z,8.63
2018-06-03T19:05:11.592Z,6.13
2018-06-03T19:07:39.857Z,6.80
2018-06-03T19:10:07.801Z,5.70
2018-06-03T19:12:35.977Z,6.00
2018-06-03T19:15:04.096Z,7.97
2018-06-03T19:17:32.326Z,6.33
2018-06-03T19:20:00.443Z,5.50
2018-06-03T19:22:28.595Z,6.33
2018-06-03T19:24:56.717Z,5.60
2018-06-03T19:27:24.772Z,7.13
2018-06-03T19:29:52.845Z,7.53
2018-06-03T19:32:20.930Z,6.20
2018-06-03T19:34:49.068Z,6.27
2018-06-03T19:37:17.345Z,5.87
2018-06-03T19:39:45.456Z,6.50
2018-06-03T19:42:13.521Z,5.63
2018-06-03T19:44:41.620Z,7.97
2018-06-03T19:47:09.733Z,8.00
2018-06-03T19:49:37.972Z,6.17
2018-06-03T19:52:06.041Z,5.70
2018-06-03T19:54:34.160Z,5.83
2018-06-03T19:57:02.250Z,4.97
2018-06-03T19:59:30.445Z,6.00
2018-06-03T20:01:58.585Z,5.23
2018-06-03T20:04:27.685Z,6.10
2018-06-03T20:06:56.170Z,5.20
2018-06-03T20:09:24.269Z,5.20
2018-06-03T20:11:52.376Z,5.60
2018-06-03T20:14:20.469Z,5.43
2018-06-03T20:16:48.570Z,5.57
2018-06-03T20:19:16.630Z,5.30
2018-06-03T20:21:44.806Z,6.17
2018-06-03T20:24:12.888Z,5.30
2018-06-03T20:26:40.993Z,5.23
2018-06-03T20:29:09.065Z,5.60
2018-06-03T20:31:37.145Z,5.70
2018-06-03T20:34:05.228Z,5.90
2018-06-03T20:36:33.392Z,5.37
2018-06-03T20:39:01.611Z,5.40
2018-06-03T20:41:29.832Z,5.47
2018-06-03T20:43:57.941Z,5.43
2018-06-03T20:46:26.029Z,5.30
2018-06-03T20:48:54.209Z,5.67
2018-06-03T20:51:22.449Z,5.40
2018-06-03T20:53:50.582Z,5.50
2018-06-03T20:56:18.760Z,5.50
2018-06-03T20:58:46.914Z,5.33
2018-06-03T21:01:15.128Z,5.50
2018-06-03T21:03:43.247Z,5.77
2018-06-03T21:06:11.375Z,5.70
2018-06-03T21:08:39.603Z,5.87
2018-06-03T21:11:07.659Z,5.90
2018-06-03T21:13:35.712Z,6.23
2018-06-03T21:16:03.805Z,6.10
2018-06-03T21:18:31.940Z,5.93
2018-06-03T21:21:00.787Z,6.00
2018-06-03T21:23:28.923Z,7.23
2018-06-03T21:25:57.013Z,16.10
2018-06-03T21:28:25.072Z,19.23
2018-06-03T21:30:53.136Z,10.30
2018-06-03T21:33:21.201Z,8.97
2018-06-03T21:35:49.293Z,8.27
2018-06-03T21:38:17.356Z,8.50
2018-06-03T21:40:45.420Z,9.80
2018-06-03T21:43:13.571Z,8.47
2018-06-03T21:45:41.705Z,8.37
2018-06-03T21:48:09.760Z,8.80
2018-06-03T21:50:37.830Z,8.40
2018-06-03T21:53:05.889Z,8.30
2018-06-03T21:55:33.982Z,10.93
2018-06-03T21:58:02.103Z,7.50
2018-06-03T22:00:30.184Z,7.40
2018-06-03T22:02:58.284Z,7.33
2018-06-03T22:05:26.364Z,7.73
2018-06-03T22:07:54.425Z,7.70
2018-06-03T22:10:22.666Z,7.70
2018-06-03T22:12:50.740Z,7.73
2018-06-03T22:15:18.840Z,7.53
2018-06-03T22:17:46.905Z,7.50
2018-06-03T22:20:14.976Z,6.83
2018-06-03T22:22:43.085Z,7.20
2018-06-03T22:25:11.160Z,6.80
2018-06-03T22:27:39.317Z,7.17
2018-06-03T22:30:07.569Z,7.10
2018-06-03T22:32:35.694Z,6.80
2018-06-03T22:35:03.785Z,7.70
2018-06-03T22:37:31.946Z,7.10
2018-06-03T22:40:00.041Z,7.20
2018-06-03T22:42:28.004Z,6.50
2018-06-03T22:44:56.090Z,6.87
2018-06-03T22:47:24.183Z,7.73
2018-06-03T22:49:52.264Z,6.73
2018-06-03T22:52:20.401Z,7.53
2018-06-03T22:54:48.501Z,6.73
2018-06-03T22:58:20.048Z,7.73
2018-06-03T23:00:48.166Z,7.47
2018-06-03T23:03:16.753Z,7.23
2018-06-03T23:05:44.807Z,7.07
2018-06-03T23:08:12.889Z,7.10
2018-06-03T23:10:41.137Z,7.20
2018-06-03T23:13:09.192Z,8.67
2018-06-03T23:15:37.306Z,7.07
2018-06-03T23:18:05.380Z,6.47
2018-06-03T23:20:33.520Z,6.60
2018-06-03T23:23:01.607Z,6.53
2018-06-03T23:25:29.728Z,6.70
2018-06-03T23:27:57.843Z,7.20
2018-06-03T23:30:25.974Z,7.50
2018-06-03T23:32:54.062Z,6.87
2018-06-03T23:35:22.136Z,7.20
2018-06-03T23:37:50.208Z,7.20
2018-06-03T23:40:18.351Z,7.10
2018-06-03T23:42:46.446Z,7.40
2018-06-03T23:45:14.319Z,7.17
2018-06-03T23:47:42.404Z,7.90
2018-06-03T23:50:10.477Z,7.77
2018-06-03T23:52:38.624Z,7.13
2018-06-03T23:55:06.703Z,7.33
2018-06-03T23:57:34.914Z,7.70
